Terminal Aerodrome Forecast
Issued by NWS

Home | Current Version | Previous Version | Text Only | Print | Product List | Glossary On
Versions: 1 2 3 4 5 6 7 8 9 10 11 12 13 14 15
000
FTUS43 KDLH 251600 AAA
TAFBRD
TAF AMD
KBRD 251638Z 2517/2612 21009KT P6SM OVC009
     FM251900 29005KT P6SM OVC015
     FM260300 35004KT 6SM -SN OVC015=

USA.gov is the U.S. government's official web portal to all federal, state and local government web resources and services.